sensor_id;sensor_type;location;lat;lon;timestamp;pressure;altitude;pressure_sealevel;temperature;humidity
9474;BME280;8865;47.636;7.692;2023-02-28T00:00:33;98660.25;;;1.34;80.13
9474;BME280;8865;47.636;7.692;2023-02-28T00:02:59;98656.88;;;1.32;78.80
9474;BME280;8865;47.636;7.692;2023-02-28T00:05:26;98656.50;;;1.41;78.92
9474;BME280;8865;47.636;7.692;2023-02-28T00:07:53;98655.16;;;1.32;79.89
9474;BME280;8865;47.636;7.692;2023-02-28T00:10:23;98657.00;;;1.29;80.22
9474;BME280;8865;47.636;7.692;2023-02-28T00:12:50;98650.75;;;1.34;80.00
9474;BME280;8865;47.636;7.692;2023-02-28T00:15:17;98653.09;;;1.40;79.90
9474;BME280;8865;47.636;7.692;2023-02-28T00:17:43;98648.81;;;1.39;80.56
9474;BME280;8865;47.636;7.692;2023-02-28T00:20:10;98658.69;;;1.30;80.13
9474;BME280;8865;47.636;7.692;2023-02-28T00:22:38;98663.59;;;1.36;80.92
9474;BME280;8865;47.636;7.692;2023-02-28T00:25:06;98657.69;;;1.34;81.35
9474;BME280;8865;47.636;7.692;2023-02-28T00:27:36;98661.72;;;1.39;79.82
9474;BME280;8865;47.636;7.692;2023-02-28T00:30:03;98656.44;;;1.42;80.77
9474;BME280;8865;47.636;7.692;2023-02-28T00:32:29;98655.34;;;1.48;79.13
9474;BME280;8865;47.636;7.692;2023-02-28T00:34:55;98657.16;;;1.46;79.04
9474;BME280;8865;47.636;7.692;2023-02-28T00:37:21;98659.28;;;1.57;81.03
9474;BME280;8865;47.636;7.692;2023-02-28T00:39:47;98654.38;;;1.51;80.92
9474;BME280;8865;47.636;7.692;2023-02-28T00:42:13;98653.59;;;1.49;81.21
9474;BME280;8865;47.636;7.692;2023-02-28T00:44:39;98656.44;;;1.42;81.58
9474;BME280;8865;47.636;7.692;2023-02-28T00:47:05;98647.72;;;1.45;81.15
9474;BME280;8865;47.636;7.692;2023-02-28T00:49:31;98655.34;;;1.48;83.28
9474;BME280;8865;47.636;7.692;2023-02-28T00:51:57;98656.69;;;1.57;82.78
9474;BME280;8865;47.636;7.692;2023-02-28T00:54:23;98653.31;;;1.55;82.72
9474;BME280;8865;47.636;7.692;2023-02-28T00:56:49;98655.91;;;1.55;81.99
9474;BME280;8865;47.636;7.692;2023-02-28T00:59:16;98655.13;;;1.53;83.08
9474;BME280;8865;47.636;7.692;2023-02-28T01:01:44;98655.13;;;1.53;83.94
9474;BME280;8865;47.636;7.692;2023-02-28T01:04:10;98645.66;;;1.53;84.95
9474;BME280;8865;47.636;7.692;2023-02-28T01:06:36;98654.13;;;1.57;85.11
9474;BME280;8865;47.636;7.692;2023-02-28T01:09:04;98653.59;;;1.49;82.85
9474;BME280;8865;47.636;7.692;2023-02-28T01:11:30;98653.72;;;1.46;84.11
9474;BME280;8865;47.636;7.692;2023-02-28T01:13:56;98652.06;;;1.45;84.62
9474;BME280;8865;47.636;7.692;2023-02-28T01:16:22;98650.38;;;1.43;84.50
9474;BME280;8865;47.636;7.692;2023-02-28T01:18:48;98650.56;;;1.39;85.65
9474;BME280;8865;47.636;7.692;2023-02-28T01:21:16;98654.97;;;1.37;86.05
9474;BME280;8865;47.636;7.692;2023-02-28T01:23:43;98647.34;;;1.34;85.85
9474;BME280;8865;47.636;7.692;2023-02-28T01:26:12;98647.03;;;1.41;86.13
9474;BME280;8865;47.636;7.692;2023-02-28T01:28:39;98645.72;;;1.31;86.24
9474;BME280;8865;47.636;7.692;2023-02-28T01:31:05;98645.59;;;1.34;87.28
9474;BME280;8865;47.636;7.692;2023-02-28T01:33:32;98640.38;;;1.36;88.69
9474;BME280;8865;47.636;7.692;2023-02-28T01:36:04;98641.28;;;1.35;87.49
9474;BME280;8865;47.636;7.692;2023-02-28T01:38:31;98639.03;;;1.48;88.71
9474;BME280;8865;47.636;7.692;2023-02-28T01:40:57;98643.13;;;1.52;86.88
9474;BME280;8865;47.636;7.692;2023-02-28T01:45:52;98639.53;;;1.35;87.64
9474;BME280;8865;47.636;7.692;2023-02-28T01:48:21;98633.72;;;1.30;88.74
9474;BME280;8865;47.636;7.692;2023-02-28T01:50:50;98637.84;;;1.34;89.90
9474;BME280;8865;47.636;7.692;2023-02-28T01:53:18;98631.53;;;1.41;89.28
9474;BME280;8865;47.636;7.692;2023-02-28T01:55:47;98638.44;;;1.41;89.77
9474;BME280;8865;47.636;7.692;2023-02-28T01:58:15;98632.09;;;1.48;89.43
9474;BME280;8865;47.636;7.692;2023-02-28T02:00:41;98631.22;;;1.49;89.28
9474;BME280;8865;47.636;7.692;2023-02-28T02:03:11;98629.31;;;1.53;89.25
9474;BME280;8865;47.636;7.692;2023-02-28T02:05:39;98624.28;;;1.50;89.28
9474;BME280;8865;47.636;7.692;2023-02-28T02:08:11;98628.63;;;1.49;89.54
9474;BME280;8865;47.636;7.692;2023-02-28T02:10:47;98622.47;;;1.52;89.06
9474;BME280;8865;47.636;7.692;2023-02-28T02:13:37;98621.72;;;1.50;89.75
9474;BME280;8865;47.636;7.692;2023-02-28T02:19:50;98622.56;;;1.30;92.35
9474;BME280;8865;47.636;7.692;2023-02-28T02:25:38;98610.91;;;1.41;93.69
9474;BME280;8865;47.636;7.692;2023-02-28T02:36:09;98607.31;;;1.65;89.69
9474;BME280;8865;47.636;7.692;2023-02-28T02:38:49;98604.53;;;1.69;91.65
9474;BME280;8865;47.636;7.692;2023-02-28T02:41:30;98604.66;;;1.66;91.19
9474;BME280;8865;47.636;7.692;2023-02-28T02:44:23;98603.31;;;1.76;91.24
9474;BME280;8865;47.636;7.692;2023-02-28T02:46:55;98602.28;;;1.81;92.34
9474;BME280;8865;47.636;7.692;2023-02-28T02:49:35;98607.31;;;1.84;92.52
9474;BME280;8865;47.636;7.692;2023-02-28T02:52:06;98600.31;;;1.86;92.17
9474;BME280;8865;47.636;7.692;2023-02-28T02:54:36;98597.81;;;1.84;90.05
9474;BME280;8865;47.636;7.692;2023-02-28T02:57:06;98603.84;;;1.85;89.52
9474;BME280;8865;47.636;7.692;2023-02-28T02:59:36;98605.50;;;1.86;89.03
9474;BME280;8865;47.636;7.692;2023-02-28T03:02:06;98602.78;;;1.89;90.21
9474;BME280;8865;47.636;7.692;2023-02-28T03:04:39;98594.19;;;1.88;90.19
9474;BME280;8865;47.636;7.692;2023-02-28T03:07:08;98601.06;;;1.89;89.11
9474;BME280;8865;47.636;7.692;2023-02-28T03:09:34;98605.22;;;1.92;88.33
9474;BME280;8865;47.636;7.692;2023-02-28T03:12:02;98595.81;;;1.91;90.34
9474;BME280;8865;47.636;7.692;2023-02-28T03:20:35;98601.06;;;1.89;92.87
9474;BME280;8865;47.636;7.692;2023-02-28T03:23:14;98604.53;;;1.88;92.19
9474;BME280;8865;47.636;7.692;2023-02-28T03:25:59;98607.94;;;1.89;92.93
9474;BME280;8865;47.636;7.692;2023-02-28T03:31:38;98602.78;;;1.89;92.05
9474;BME280;8865;47.636;7.692;2023-02-28T03:34:13;98596.72;;;1.90;96.20
9474;BME280;8865;47.636;7.692;2023-02-28T03:36:48;98594.88;;;1.92;97.27
9474;BME280;8865;47.636;7.692;2023-02-28T03:39:18;98594.06;;;1.91;99.54
9474;BME280;8865;47.636;7.692;2023-02-28T03:41:59;98602.97;;;1.84;100.00
9474;BME280;8865;47.636;7.692;2023-02-28T03:44:35;98603.25;;;1.78;100.00
9474;BME280;8865;47.636;7.692;2023-02-28T03:47:08;98601.59;;;1.77;100.00
9474;BME280;8865;47.636;7.692;2023-02-28T03:49:50;98606.97;;;1.72;100.00
9474;BME280;8865;47.636;7.692;2023-02-28T03:52:22;98600.19;;;1.70;100.00
9474;BME280;8865;47.636;7.692;2023-02-28T03:54:54;98609.97;;;1.63;100.00
9474;BME280;8865;47.636;7.692;2023-02-28T03:57:47;98606.44;;;1.64;100.00
9474;BME280;8865;47.636;7.692;2023-02-28T04:00:27;98612.53;;;1.63;100.00
9474;BME280;8865;47.636;7.692;2023-02-28T04:02:56;98615.47;;;1.55;100.00
9474;BME280;8865;47.636;7.692;2023-02-28T04:05:23;98618.94;;;1.54;100.00
9474;BME280;8865;47.636;7.692;2023-02-28T04:07:49;98618.03;;;1.55;100.00
9474;BME280;8865;47.636;7.692;2023-02-28T04:10:16;98618.81;;;1.57;100.00
9474;BME280;8865;47.636;7.692;2023-02-28T04:12:42;98618.09;;;1.54;100.00
9474;BME280;8865;47.636;7.692;2023-02-28T04:15:08;98619.97;;;1.50;100.00
9474;BME280;8865;47.636;7.692;2023-02-28T04:17:34;98626.25;;;1.45;100.00
9474;BME280;8865;47.636;7.692;2023-02-28T04:20:00;98628.16;;;1.39;100.00
9474;BME280;8865;47.636;7.692;2023-02-28T04:22:26;98624.06;;;1.35;100.00
9474;BME280;8865;47.636;7.692;2023-02-28T04:24:53;98631.94;;;1.32;100.00
9474;BME280;8865;47.636;7.692;2023-02-28T04:27:21;98637.22;;;1.29;100.00
9474;BME280;8865;47.636;7.692;2023-02-28T04:29:47;98643.34;;;1.27;100.00
9474;BME280;8865;47.636;7.692;2023-02-28T04:32:13;98633.91;;;1.25;100.00
9474;BME280;8865;47.636;7.692;2023-02-28T04:34:39;98641.78;;;1.22;100.00
9474;BME280;8865;47.636;7.692;2023-02-28T04:37:05;98644.56;;;1.18;100.00
9474;BME280;8865;47.636;7.692;2023-02-28T04:39:35;98652.34;;;1.16;100.00
9474;BME280;8865;47.636;7.692;2023-02-28T04:42:02;98646.56;;;1.11;100.00
9474;BME280;8865;47.636;7.692;2023-02-28T04:44:28;98650.91;;;1.11;100.00
9474;BME280;8865;47.636;7.692;2023-02-28T04:46:54;98646.88;;;1.03;100.00
9474;BME280;8865;47.636;7.692;2023-02-28T04:49:20;98646.81;;;1.05;100.00
9474;BME280;8865;47.636;7.692;2023-02-28T04:51:47;98649.34;;;1.06;100.00
9474;BME280;8865;47.636;7.692;2023-02-28T04:54:13;98655.38;;;1.05;100.00
9474;BME280;8865;47.636;7.692;2023-02-28T04:56:39;98652.03;;;1.03;100.00
9474;BME280;8865;47.636;7.692;2023-02-28T04:59:05;98663.19;;;1.04;100.00
9474;BME280;8865;47.636;7.692;2023-02-28T05:01:33;98657.19;;;1.03;100.00
9474;BME280;8865;47.636;7.692;2023-02-28T05:04:00;98655.44;;;1.04;100.00
9474;BME280;8865;47.636;7.692;2023-02-28T05:06:29;98661.50;;;1.03;100.00
9474;BME280;8865;47.636;7.692;2023-02-28T05:08:56;98654.69;;;1.02;100.00
9474;BME280;8865;47.636;7.692;2023-02-28T05:13:48;98657.38;;;0.99;100.00
9474;BME280;8865;47.636;7.692;2023-02-28T05:16:15;98665.25;;;0.96;100.00
9474;BME280;8865;47.636;7.692;2023-02-28T05:18:41;98667.88;;;0.94;100.00
9474;BME280;8865;47.636;7.692;2023-02-28T05:23:49;98670.66;;;0.89;100.00
9474;BME280;8865;47.636;7.692;2023-02-28T05:26:15;98670.66;;;0.89;100.00
9474;BME280;8865;47.636;7.692;2023-02-28T05:28:41;98675.88;;;0.88;100.00
9474;BME280;8865;47.636;7.692;2023-02-28T05:31:10;98672.50;;;0.86;100.00
9474;BME280;8865;47.636;7.692;2023-02-28T05:33:36;98673.47;;;0.83;100.00
9474;BME280;8865;47.636;7.692;2023-02-28T05:36:03;98679.47;;;0.84;100.00
9474;BME280;8865;47.636;7.692;2023-02-28T05:38:29;98679.53;;;0.82;100.00
9474;BME280;8865;47.636;7.692;2023-02-28T05:40:55;98679.53;;;0.82;100.00
9474;BME280;8865;47.636;7.692;2023-02-28T05:43:22;98676.00;;;0.85;100.00
9474;BME280;8865;47.636;7.692;2023-02-28T05:45:48;98678.38;;;0.89;100.00
9474;BME280;8865;47.636;7.692;2023-02-28T05:48:14;98670.84;;;0.85;100.00
9474;BME280;8865;47.636;7.692;2023-02-28T05:50:40;98664.69;;;0.87;100.00
9474;BME280;8865;47.636;7.692;2023-02-28T05:53:08;98675.06;;;0.86;100.00
9474;BME280;8865;47.636;7.692;2023-02-28T05:55:34;98670.84;;;0.85;100.00
9474;BME280;8865;47.636;7.692;2023-02-28T05:58:01;98675.06;;;0.86;100.00
9474;BME280;8865;47.636;7.692;2023-02-28T06:00:27;98667.41;;;0.84;100.00
9474;BME280;8865;47.636;7.692;2023-02-28T06:02:54;98682.94;;;0.83;100.00
9474;BME280;8865;47.636;7.692;2023-02-28T06:05:22;98683.91;;;0.80;100.00
9474;BME280;8865;47.636;7.692;2023-02-28T06:07:48;98688.94;;;0.83;100.00
9474;BME280;8865;47.636;7.692;2023-02-28T06:10:14;98681.97;;;0.85;100.00
9474;BME280;8865;47.636;7.692;2023-02-28T06:12:40;98692.34;;;0.84;100.00
9474;BME280;8865;47.636;7.692;2023-02-28T06:15:13;98690.66;;;0.83;100.00
9474;BME280;8865;47.636;7.692;2023-02-28T06:17:43;98690.78;;;0.80;100.00
9474;BME280;8865;47.636;7.692;2023-02-28T06:20:11;98687.31;;;0.81;100.00
9474;BME280;8865;47.636;7.692;2023-02-28T06:22:38;98690.53;;;0.86;100.00
9474;BME280;8865;47.636;7.692;2023-02-28T06:25:06;98700.84;;;0.86;100.00
9474;BME280;8865;47.636;7.692;2023-02-28T06:27:33;98695.56;;;0.89;100.00
9474;BME280;8865;47.636;7.692;2023-02-28T06:29:59;98697.63;;;0.81;100.00
9474;BME280;8865;47.636;7.692;2023-02-28T06:32:25;98707.13;;;0.80;100.00
9474;BME280;8865;47.636;7.692;2023-02-28T06:34:52;98699.19;;;0.85;100.00
9474;BME280;8865;47.636;7.692;2023-02-28T06:37:18;98699.84;;;0.90;100.00
9474;BME280;8865;47.636;7.692;2023-02-28T06:39:44;98703.13;;;0.94;100.00
9474;BME280;8865;47.636;7.692;2023-02-28T06:42:10;98703.00;;;0.97;100.00
9474;BME280;8865;47.636;7.692;2023-02-28T06:44:36;98701.22;;;0.99;100.00
9474;BME280;8865;47.636;7.692;2023-02-28T06:47:04;98708.97;;;0.99;100.00
9474;BME280;8865;47.636;7.692;2023-02-28T06:49:34;98707.97;;;1.01;100.00
9474;BME280;8865;47.636;7.692;2023-02-28T06:52:01;98709.69;;;1.02;100.00
9474;BME280;8865;47.636;7.692;2023-02-28T06:54:27;98710.56;;;1.01;100.00
9474;BME280;8865;47.636;7.692;2023-02-28T06:56:53;98701.03;;;1.03;100.00
9474;BME280;8865;47.636;7.692;2023-02-28T06:59:20;98695.28;;;0.97;100.00
9474;BME280;8865;47.636;7.692;2023-02-28T07:01:46;98701.34;;;0.96;100.00
9474;BME280;8865;47.636;7.692;2023-02-28T07:04:13;98703.94;;;0.96;100.00
9474;BME280;8865;47.636;7.692;2023-02-28T07:06:39;98710.69;;;0.98;100.00
9474;BME280;8865;47.636;7.692;2023-02-28T07:09:05;98713.13;;;1.01;100.00
9474;BME280;8865;47.636;7.692;2023-02-28T07:11:32;98711.53;;;0.99;100.00
9474;BME280;8865;47.636;7.692;2023-02-28T07:13:58;98709.03;;;0.97;100.00
9474;BME280;8865;47.636;7.692;2023-02-28T07:16:25;98721.97;;;0.96;100.00
9474;BME280;8865;47.636;7.692;2023-02-28T07:18:54;98720.06;;;1.01;100.00
9474;BME280;8865;47.636;7.692;2023-02-28T07:21:20;98721.13;;;0.95;100.00
9474;BME280;8865;47.636;7.692;2023-02-28T07:23:46;98726.00;;;0.81;100.00
9474;BME280;8865;47.636;7.692;2023-02-28T07:26:15;98721.50;;;0.86;100.00
9474;BME280;8865;47.636;7.692;2023-02-28T07:28:43;98726.66;;;0.86;100.00
9474;BME280;8865;47.636;7.692;2023-02-28T07:31:10;98732.50;;;0.67;100.00
9474;BME280;8865;47.636;7.692;2023-02-28T07:33:37;98735.59;;;0.53;100.00
9474;BME280;8865;47.636;7.692;2023-02-28T07:36:07;98737.56;;;0.70;100.00
9474;BME280;8865;47.636;7.692;2023-02-28T07:38:35;98739.78;;;0.80;100.00
9474;BME280;8865;47.636;7.692;2023-02-28T07:41:01;98739.19;;;0.73;100.00
9474;BME280;8865;47.636;7.692;2023-02-28T07:43:31;98744.69;;;0.86;100.00
9474;BME280;8865;47.636;7.692;2023-02-28T07:46:10;98734.25;;;0.89;100.00
9474;BME280;8865;47.636;7.692;2023-02-28T07:48:37;98739.06;;;0.98;100.00
9474;BME280;8865;47.636;7.692;2023-02-28T07:51:03;98741.31;;;1.08;100.00
9474;BME280;8865;47.636;7.692;2023-02-28T07:53:29;98741.31;;;1.08;100.00
9474;BME280;8865;47.636;7.692;2023-02-28T07:55:56;98741.50;;;1.01;100.00
9474;BME280;8865;47.636;7.692;2023-02-28T07:58:23;98749.84;;;0.86;100.00
9474;BME280;8865;47.636;7.692;2023-02-28T08:00:50;98758.31;;;0.44;100.00
9474;BME280;8865;47.636;7.692;2023-02-28T08:03:21;98744.50;;;0.46;100.00
9474;BME280;8865;47.636;7.692;2023-02-28T08:05:47;98762.00;;;0.37;100.00
9474;BME280;8865;47.636;7.692;2023-02-28T08:08:14;98755.84;;;0.41;100.00
9474;BME280;8865;47.636;7.692;2023-02-28T08:10:41;98752.94;;;0.50;100.00
9474;BME280;8865;47.636;7.692;2023-02-28T08:13:07;98764.47;;;0.40;100.00
9474;BME280;8865;47.636;7.692;2023-02-28T08:15:33;98766.75;;;0.47;100.00
9474;BME280;8865;47.636;7.692;2023-02-28T08:17:59;98766.47;;;0.55;100.00
9474;BME280;8865;47.636;7.692;2023-02-28T08:20:25;98768.63;;;0.44;100.00
9474;BME280;8865;47.636;7.692;2023-02-28T08:22:51;98770.75;;;0.56;100.00
9474;BME280;8865;47.636;7.692;2023-02-28T08:25:18;98776.47;;;0.41;100.00
9474;BME280;8865;47.636;7.692;2023-02-28T08:27:44;98770.75;;;0.56;100.00
9474;BME280;8865;47.636;7.692;2023-02-28T08:30:13;98762.59;;;0.45;100.00
9474;BME280;8865;47.636;7.692;2023-02-28T08:32:40;98765.94;;;0.47;100.00
9474;BME280;8865;47.636;7.692;2023-02-28T08:35:06;98764.53;;;0.62;100.00
9474;BME280;8865;47.636;7.692;2023-02-28T08:37:34;98769.28;;;0.73;100.00
9474;BME280;8865;47.636;7.692;2023-02-28T08:40:01;98769.06;;;0.79;100.00
9474;BME280;8865;47.636;7.692;2023-02-28T08:42:27;98772.06;;;0.90;100.00
9474;BME280;8865;47.636;7.692;2023-02-28T08:44:53;98773.50;;;0.97;100.00
9474;BME280;8865;47.636;7.692;2023-02-28T08:47:19;98780.19;;;0.79;100.00
9474;BME280;8865;47.636;7.692;2023-02-28T08:49:45;98773.41;;;0.77;100.00
9474;BME280;8865;47.636;7.692;2023-02-28T08:52:11;98778.69;;;0.74;100.00
9474;BME280;8865;47.636;7.692;2023-02-28T08:54:37;98772.72;;;0.95;100.00
9474;BME280;8865;47.636;7.692;2023-02-28T08:57:03;98775.03;;;1.01;100.00
9474;BME280;8865;47.636;7.692;2023-02-28T08:59:29;98778.59;;;1.21;100.00
9474;BME280;8865;47.636;7.692;2023-02-28T09:01:55;98773.31;;;1.24;100.00
9474;BME280;8865;47.636;7.692;2023-02-28T09:04:21;98782.19;;;1.39;100.00
9474;BME280;8865;47.636;7.692;2023-02-28T09:06:48;98775.31;;;1.60;100.00
9474;BME280;8865;47.636;7.692;2023-02-28T09:09:15;98771.56;;;1.67;100.00
9474;BME280;8865;47.636;7.692;2023-02-28T09:11:41;98774.63;;;1.77;100.00
9474;BME280;8865;47.636;7.692;2023-02-28T09:14:07;98774.81;;;1.93;100.00
9474;BME280;8865;47.636;7.692;2023-02-28T09:16:34;98783.84;;;2.03;100.00
9474;BME280;8865;47.636;7.692;2023-02-28T09:19:00;98778.56;;;2.06;100.00
9474;BME280;8865;47.636;7.692;2023-02-28T09:21:26;98772.59;;;2.04;100.00
9474;BME280;8865;47.636;7.692;2023-02-28T09:23:53;98778.69;;;2.03;100.00
9474;BME280;8865;47.636;7.692;2023-02-28T09:26:24;98769.38;;;1.99;100.00
9474;BME280;8865;47.636;7.692;2023-02-28T09:28:51;98780.59;;;1.98;100.00
9474;BME280;8865;47.636;7.692;2023-02-28T09:31:23;98779.06;;;2.14;100.00
9474;BME280;8865;47.636;7.692;2023-02-28T09:33:51;98771.47;;;2.30;100.00
9474;BME280;8865;47.636;7.692;2023-02-28T09:36:17;98776.72;;;2.48;100.00
9474;BME280;8865;47.636;7.692;2023-02-28T09:38:44;98774.16;;;2.67;100.00
9474;BME280;8865;47.636;7.692;2023-02-28T09:41:20;98770.38;;;2.74;100.00
9474;BME280;8865;47.636;7.692;2023-02-28T09:43:50;98771.94;;;2.78;100.00
9474;BME280;8865;47.636;7.692;2023-02-28T09:46:36;98770.34;;;2.93;100.00
9474;BME280;8865;47.636;7.692;2023-02-28T09:49:14;98776.66;;;2.49;100.00
9474;BME280;8865;47.636;7.692;2023-02-28T09:54:22;98777.25;;;2.75;100.00
9474;BME280;8865;47.636;7.692;2023-02-28T09:56:52;98777.97;;;2.96;100.00
9474;BME280;8865;47.636;7.692;2023-02-28T10:02:24;98776.25;;;3.33;100.00
9474;BME280;8865;47.636;7.692;2023-02-28T10:05:02;98772.00;;;3.50;100.00
9474;BME280;8865;47.636;7.692;2023-02-28T10:10:27;98777.72;;;3.74;100.00
9474;BME280;8865;47.636;7.692;2023-02-28T10:12:57;98773.63;;;3.87;100.00
9474;BME280;8865;47.636;7.692;2023-02-28T10:15:27;98783.34;;;4.00;100.00
9474;BME280;8865;47.636;7.692;2023-02-28T10:17:59;98787.84;;;3.96;100.00
9474;BME280;8865;47.636;7.692;2023-02-28T10:20:27;98788.75;;;4.13;100.00
9474;BME280;8865;47.636;7.692;2023-02-28T10:23:11;98783.94;;;4.22;100.00
9474;BME280;8865;47.636;7.692;2023-02-28T10:25:43;98787.38;;;4.05;100.00
9474;BME280;8865;47.636;7.692;2023-02-28T10:28:15;98783.25;;;4.19;100.00
9474;BME280;8865;47.636;7.692;2023-02-28T10:30:48;98796.91;;;4.22;100.00
9474;BME280;8865;47.636;7.692;2023-02-28T10:33:28;98801.31;;;4.20;100.00
9474;BME280;8865;47.636;7.692;2023-02-28T10:35:56;98809.25;;;4.17;100.00
9474;BME280;8865;47.636;7.692;2023-02-28T10:38:24;98799.88;;;3.97;100.00
9474;BME280;8865;47.636;7.692;2023-02-28T10:40:51;98794.41;;;4.03;100.00
9474;BME280;8865;47.636;7.692;2023-02-28T10:43:28;98793.25;;;4.09;100.00
9474;BME280;8865;47.636;7.692;2023-02-28T10:46:10;98790.75;;;4.07;100.00
9474;BME280;8865;47.636;7.692;2023-02-28T10:51:13;98799.13;;;4.13;100.00
9474;BME280;8865;47.636;7.692;2023-02-28T11:01:22;98798.47;;;4.25;100.00
9474;BME280;8865;47.636;7.692;2023-02-28T11:03:49;98788.91;;;4.27;100.00
9474;BME280;8865;47.636;7.692;2023-02-28T11:06:35;98789.81;;;4.42;100.00
9474;BME280;8865;47.636;7.692;2023-02-28T11:11:59;98796.06;;;4.55;100.00
9474;BME280;8865;47.636;7.692;2023-02-28T11:14:32;98796.41;;;4.65;100.00
9474;BME280;8865;47.636;7.692;2023-02-28T11:17:14;98802.06;;;4.56;100.00
9474;BME280;8865;47.636;7.692;2023-02-28T11:19:46;98802.78;;;4.59;100.00
9474;BME280;8865;47.636;7.692;2023-02-28T11:22:19;98802.59;;;4.62;100.00
9474;BME280;8865;47.636;7.692;2023-02-28T11:24:51;98801.34;;;4.70;100.00
9474;BME280;8865;47.636;7.692;2023-02-28T11:29:58;98790.13;;;4.85;100.00
9474;BME280;8865;47.636;7.692;2023-02-28T11:32:28;98792.22;;;4.94;100.00
9474;BME280;8865;47.636;7.692;2023-02-28T11:35:14;98797.09;;;5.16;100.00
9474;BME280;8865;47.636;7.692;2023-02-28T11:37:42;98777.25;;;5.31;100.00
9474;BME280;8865;47.636;7.692;2023-02-28T11:40:21;98777.75;;;5.52;100.00
9474;BME280;8865;47.636;7.692;2023-02-28T11:45:49;98776.06;;;5.67;100.00
9474;BME280;8865;47.636;7.692;2023-02-28T11:48:22;98778.50;;;5.85;97.67
9474;BME280;8865;47.636;7.692;2023-02-28T11:53:48;98778.78;;;5.80;82.57
9474;BME280;8865;47.636;7.692;2023-02-28T11:56:43;98772.94;;;5.77;75.92
9474;BME280;8865;47.636;7.692;2023-02-28T12:10:21;98775.44;;;6.08;72.31
9474;BME280;8865;47.636;7.692;2023-02-28T12:13:28;98773.59;;;6.39;72.95
9474;BME280;8865;47.636;7.692;2023-02-28T12:19:11;98775.72;;;7.18;69.36
9474;BME280;8865;47.636;7.692;2023-02-28T12:27:01;98766.69;;;7.63;65.21
9474;BME280;8865;47.636;7.692;2023-02-28T12:29:31;98768.53;;;7.61;60.86
9474;BME280;8865;47.636;7.692;2023-02-28T12:32:06;98760.63;;;7.63;60.37
9474;BME280;8865;47.636;7.692;2023-02-28T12:34:38;98764.78;;;7.53;62.14
9474;BME280;8865;47.636;7.692;2023-02-28T12:37:15;98773.25;;;6.87;59.58
9474;BME280;8865;47.636;7.692;2023-02-28T12:39:49;98771.28;;;7.05;63.90
9474;BME280;8865;47.636;7.692;2023-02-28T12:42:28;98771.81;;;7.38;61.67
9474;BME280;8865;47.636;7.692;2023-02-28T12:45:01;98773.31;;;7.00;59.38
9474;BME280;8865;47.636;7.692;2023-02-28T12:47:28;98781.22;;;6.71;60.84
9474;BME280;8865;47.636;7.692;2023-02-28T12:49:56;98775.91;;;6.58;61.45
9474;BME280;8865;47.636;7.692;2023-02-28T12:58:01;98760.50;;;6.41;61.44
9474;BME280;8865;47.636;7.692;2023-02-28T13:00:36;98765.50;;;6.01;62.86
9474;BME280;8865;47.636;7.692;2023-02-28T13:03:52;98759.09;;;5.76;63.64
9474;BME280;8865;47.636;7.692;2023-02-28T13:06:27;98759.75;;;5.80;63.51
9474;BME280;8865;47.636;7.692;2023-02-28T13:09:12;98756.69;;;5.43;64.43
9474;BME280;8865;47.636;7.692;2023-02-28T13:11:46;98763.09;;;5.21;65.17
9474;BME280;8865;47.636;7.692;2023-02-28T13:14:38;98757.25;;;5.78;66.39
9474;BME280;8865;47.636;7.692;2023-02-28T13:19:37;98759.47;;;6.58;67.42
9474;BME280;8865;47.636;7.692;2023-02-28T13:22:04;98757.88;;;6.55;61.06
9474;BME280;8865;47.636;7.692;2023-02-28T13:24:52;98749.50;;;6.65;61.87
9474;BME280;8865;47.636;7.692;2023-02-28T13:29:51;98753.06;;;6.35;60.43
9474;BME280;8865;47.636;7.692;2023-02-28T13:32:25;98758.34;;;6.33;60.80
9474;BME280;8865;47.636;7.692;2023-02-28T13:39:55;98763.59;;;5.88;62.83
9474;BME280;8865;47.636;7.692;2023-02-28T13:45:21;98766.53;;;6.27;62.47
9474;BME280;8865;47.636;7.692;2023-02-28T13:58:54;98774.06;;;6.46;60.09
9474;BME280;8865;47.636;7.692;2023-02-28T14:06:33;98782.09;;;5.98;64.04
9474;BME280;8865;47.636;7.692;2023-02-28T14:09:15;98780.28;;;6.15;64.08
9474;BME280;8865;47.636;7.692;2023-02-28T14:11:43;98787.91;;;6.18;62.69
9474;BME280;8865;47.636;7.692;2023-02-28T14:17:12;98777.31;;;6.35;62.86
9474;BME280;8865;47.636;7.692;2023-02-28T14:19:40;98781.97;;;6.30;62.60
9474;BME280;8865;47.636;7.692;2023-02-28T14:33:31;98785.84;;;6.08;64.07
9474;BME280;8865;47.636;7.692;2023-02-28T14:36:07;98785.03;;;5.92;64.77
9474;BME280;8865;47.636;7.692;2023-02-28T14:38:41;98783.78;;;5.83;65.78
9474;BME280;8865;47.636;7.692;2023-02-28T14:41:18;98790.94;;;5.49;65.32
9474;BME280;8865;47.636;7.692;2023-02-28T14:44:00;98790.41;;;5.12;67.35
9474;BME280;8865;47.636;7.692;2023-02-28T14:46:40;98799.69;;;5.00;68.79
9474;BME280;8865;47.636;7.692;2023-02-28T14:49:23;98797.78;;;5.04;70.66
9474;BME280;8865;47.636;7.692;2023-02-28T14:52:03;98801.84;;;5.08;71.66
9474;BME280;8865;47.636;7.692;2023-02-28T14:54:31;98800.88;;;5.11;72.18
9474;BME280;8865;47.636;7.692;2023-02-28T14:56:58;98801.19;;;5.05;70.54
9474;BME280;8865;47.636;7.692;2023-02-28T14:59:30;98802.53;;;4.96;71.96
9474;BME280;8865;47.636;7.692;2023-02-28T15:02:20;98810.22;;;4.65;72.25
9474;BME280;8865;47.636;7.692;2023-02-28T15:04:53;98799.72;;;4.51;75.65
9474;BME280;8865;47.636;7.692;2023-02-28T15:07:20;98807.75;;;4.46;77.20
9474;BME280;8865;47.636;7.692;2023-02-28T15:10:28;98804.06;;;4.35;77.15
9474;BME280;8865;47.636;7.692;2023-02-28T15:13:05;98811.38;;;4.26;77.53
9474;BME280;8865;47.636;7.692;2023-02-28T15:15:54;98812.31;;;4.25;80.01
9474;BME280;8865;47.636;7.692;2023-02-28T15:18:29;98806.72;;;4.33;80.70
9474;BME280;8865;47.636;7.692;2023-02-28T15:21:00;98819.13;;;4.44;79.21
9474;BME280;8865;47.636;7.692;2023-02-28T15:23:28;98819.41;;;4.04;81.21
9474;BME280;8865;47.636;7.692;2023-02-28T15:25:55;98821.94;;;4.06;82.22
9474;BME280;8865;47.636;7.692;2023-02-28T15:28:23;98819.69;;;4.16;84.65
9474;BME280;8865;47.636;7.692;2023-02-28T15:30:52;98818.88;;;4.15;82.17
9474;BME280;8865;47.636;7.692;2023-02-28T15:33:20;98818.47;;;4.05;83.53
9474;BME280;8865;47.636;7.692;2023-02-28T15:35:48;98816.50;;;4.10;85.08
9474;BME280;8865;47.636;7.692;2023-02-28T15:38:21;98833.03;;;4.08;83.28
9474;BME280;8865;47.636;7.692;2023-02-28T15:40:55;98824.97;;;3.97;83.89
9474;BME280;8865;47.636;7.692;2023-02-28T15:43:32;98822.09;;;4.03;84.63
9474;BME280;8865;47.636;7.692;2023-02-28T15:48:37;98826.28;;;4.39;84.09
9474;BME280;8865;47.636;7.692;2023-02-28T15:53:58;98826.47;;;4.36;83.13
9474;BME280;8865;47.636;7.692;2023-02-28T15:58:57;98823.94;;;4.34;85.75
9474;BME280;8865;47.636;7.692;2023-02-28T16:01:25;98820.75;;;4.29;84.49